Карточка аэропорта UAAA

Внимание!
Информация на этой странице в стадии наполнения.
Если вы не увидели какой-то информации, или заметили неточность - пожалуйста сообщите нам!
Спасибо!
Команда XR-STAFF
Название аэропортаАлматы
Название аэропорта (англ.)Almaty
Превышение2238 ft. (682.1 m.)
Координаты43°21.072', 77°1.5960000000001'
Высота перехода10000ft
Эшелон переходаFL120, QNH<733:FL130
Коды ответчика3501-3517, 3401-3427
Зона ОрВДАлматы РПИ (UAAA)
Данные METARUAAA 171800Z 14003MPS 9999 FEW050CB SCT100 17/07 Q1011 NOSIG
Проноз погоды (TAF)UAAA 171711Z 1718/1818 21003MPS 9999 SCT050CB BKN100 TX27/1809Z TN13/1801Z BECMG 1802/1803 01003MPS TEMPO 1802/1809 05003G08MPS BECMG 1809/1810 26003MPS BKN030CB BKN100 TEMPO 1809/1818 22007G15MPS 4000 -TSRA
NOTAMshow/hide NOTAM
AWOS   TABLE

Информация о ВПП

ВПП Длина ВПП (м.) Покрытие Курс ВПП Частота ILS
23L4400Асфальтобетон231108.1
05L4500Бетон51109.1
05R4400Асфальтобетон51110.3
23R4500Бетон231111.3

Диспетчерские позиции

Позывной Наименование органа УВД Частота
UAAA_APPАлматы-Подход124.8
UAAA_TWRАлматы-Вышка119.4
UAAA_GNDАлматы-Руление121.7
UAAA_R_APPАлматы-Круг120.8



Спутниковое изображение